sensor_id;sensor_type;location;lat;lon;timestamp;pressure;altitude;pressure_sealevel;temperature;humidity
61963;BME280;47927;42.646;23.096;2023-04-09T00:01:11;92256.75;;;6.68;62.45
61963;BME280;47927;42.646;23.096;2023-04-09T00:03:37;92263.91;;;6.87;61.41
61963;BME280;47927;42.646;23.096;2023-04-09T00:06:04;92262.47;;;6.90;60.68
61963;BME280;47927;42.646;23.096;2023-04-09T00:08:29;92268.91;;;6.96;60.42
61963;BME280;47927;42.646;23.096;2023-04-09T00:10:57;92267.16;;;7.00;60.13
61963;BME280;47927;42.646;23.096;2023-04-09T00:13:22;92269.91;;;7.07;60.03
61963;BME280;47927;42.646;23.096;2023-04-09T00:15:48;92275.69;;;7.00;59.85
61963;BME280;47927;42.646;23.096;2023-04-09T00:18:14;92266.91;;;7.05;59.56
61963;BME280;47927;42.646;23.096;2023-04-09T00:20:40;92273.75;;;7.13;59.63
61963;BME280;47927;42.646;23.096;2023-04-09T00:23:06;92277.00;;;7.10;59.95
61963;BME280;47927;42.646;23.096;2023-04-09T00:25:31;92277.03;;;7.26;59.79
61963;BME280;47927;42.646;23.096;2023-04-09T00:27:57;92219.28;;;6.94;60.03
61963;BME280;47927;42.646;23.096;2023-04-09T00:30:23;92269.47;;;7.37;59.33
61963;BME280;47927;42.646;23.096;2023-04-09T00:32:48;92265.81;;;7.38;59.28
61963;BME280;47927;42.646;23.096;2023-04-09T00:35:14;92225.88;;;7.07;59.52
61963;BME280;47927;42.646;23.096;2023-04-09T00:37:43;92226.78;;;6.99;59.18
61963;BME280;47927;42.646;23.096;2023-04-09T00:40:09;92264.81;;;7.26;59.30
61963;BME280;47927;42.646;23.096;2023-04-09T00:42:35;92263.47;;;7.17;59.69
61963;BME280;47927;42.646;23.096;2023-04-09T00:45:05;92263.72;;;7.27;60.12
61963;BME280;47927;42.646;23.096;2023-04-09T00:47:31;92276.09;;;7.34;59.86
61963;BME280;47927;42.646;23.096;2023-04-09T00:49:59;92272.81;;;7.53;60.11
61963;BME280;47927;42.646;23.096;2023-04-09T00:52:26;92269.28;;;7.61;59.81
61963;BME280;47927;42.646;23.096;2023-04-09T00:54:52;92234.72;;;7.38;59.39
61963;BME280;47927;42.646;23.096;2023-04-09T00:57:18;92274.81;;;7.60;59.51
61963;BME280;47927;42.646;23.096;2023-04-09T00:59:44;92281.66;;;7.52;59.97
61963;BME280;47927;42.646;23.096;2023-04-09T01:02:10;92281.25;;;7.66;59.99
61963;BME280;47927;42.646;23.096;2023-04-09T01:04:37;92220.50;;;7.31;59.92
61963;BME280;47927;42.646;23.096;2023-04-09T01:07:19;92280.13;;;7.83;59.90
61963;BME280;47927;42.646;23.096;2023-04-09T01:15:20;92270.03;;;7.97;59.20
61963;BME280;47927;42.646;23.096;2023-04-09T01:17:52;92282.81;;;8.06;59.46
61963;BME280;47927;42.646;23.096;2023-04-09T01:30:40;92275.25;;;8.16;58.91
61963;BME280;47927;42.646;23.096;2023-04-09T01:33:09;92276.94;;;8.09;59.42
61963;BME280;47927;42.646;23.096;2023-04-09T01:35:36;92276.19;;;8.08;59.38
61963;BME280;47927;42.646;23.096;2023-04-09T01:38:02;92238.06;;;7.73;59.46
61963;BME280;47927;42.646;23.096;2023-04-09T01:40:29;92264.97;;;7.85;59.78
61963;BME280;47927;42.646;23.096;2023-04-09T01:42:55;92266.97;;;7.91;59.94
61963;BME280;47927;42.646;23.096;2023-04-09T01:45:21;92275.31;;;8.01;59.50
61963;BME280;47927;42.646;23.096;2023-04-09T01:47:47;92240.00;;;7.76;59.56
61963;BME280;47927;42.646;23.096;2023-04-09T01:50:13;92275.50;;;8.11;59.64
61963;BME280;47927;42.646;23.096;2023-04-09T01:52:39;92211.09;;;7.59;59.74
61963;BME280;47927;42.646;23.096;2023-04-09T01:55:05;92271.84;;;8.12;59.62
61963;BME280;47927;42.646;23.096;2023-04-09T01:57:31;92281.38;;;8.08;59.55
61963;BME280;47927;42.646;23.096;2023-04-09T01:59:57;92270.38;;;8.15;59.58
61963;BME280;47927;42.646;23.096;2023-04-09T02:02:53;92233.84;;;7.85;59.65
61963;BME280;47927;42.646;23.096;2023-04-09T02:05:17;92268.69;;;8.03;59.88
61963;BME280;47927;42.646;23.096;2023-04-09T02:07:46;92266.78;;;8.19;59.80
61963;BME280;47927;42.646;23.096;2023-04-09T02:10:17;92263.50;;;8.22;59.36
61963;BME280;47927;42.646;23.096;2023-04-09T02:12:48;92204.22;;;7.86;59.21
61963;BME280;47927;42.646;23.096;2023-04-09T02:15:18;92265.16;;;8.31;59.15
61963;BME280;47927;42.646;23.096;2023-04-09T02:17:44;92211.34;;;7.89;59.67
61963;BME280;47927;42.646;23.096;2023-04-09T02:20:10;92253.66;;;8.32;59.86
61963;BME280;47927;42.646;23.096;2023-04-09T02:22:37;92267.06;;;8.34;59.81
61963;BME280;47927;42.646;23.096;2023-04-09T02:25:04;92231.13;;;8.16;59.74
61963;BME280;47927;42.646;23.096;2023-04-09T02:27:29;92265.47;;;8.29;59.75
61963;BME280;47927;42.646;23.096;2023-04-09T02:29:55;92267.06;;;8.34;59.86
61963;BME280;47927;42.646;23.096;2023-04-09T02:32:20;92254.22;;;8.21;60.10
61963;BME280;47927;42.646;23.096;2023-04-09T02:34:46;92264.78;;;8.32;60.08
61963;BME280;47927;42.646;23.096;2023-04-09T02:37:11;92260.88;;;8.38;60.15
61963;BME280;47927;42.646;23.096;2023-04-09T02:39:37;92254.78;;;8.50;59.86
61963;BME280;47927;42.646;23.096;2023-04-09T02:42:02;92265.16;;;8.50;59.81
61963;BME280;47927;42.646;23.096;2023-04-09T02:44:28;92214.75;;;8.12;59.46
61963;BME280;47927;42.646;23.096;2023-04-09T02:46:54;92258.47;;;8.49;59.39
61963;BME280;47927;42.646;23.096;2023-04-09T02:49:20;92213.38;;;8.18;59.58
61963;BME280;47927;42.646;23.096;2023-04-09T02:51:45;92252.25;;;8.54;59.82
61963;BME280;47927;42.646;23.096;2023-04-09T02:54:11;92262.06;;;8.64;59.50
61963;BME280;47927;42.646;23.096;2023-04-09T02:56:36;92254.69;;;8.66;59.48
61963;BME280;47927;42.646;23.096;2023-04-09T02:59:02;92258.38;;;8.65;59.50
61963;BME280;47927;42.646;23.096;2023-04-09T03:01:27;92263.25;;;8.66;59.43
61963;BME280;47927;42.646;23.096;2023-04-09T03:03:53;92252.25;;;8.54;59.50
61963;BME280;47927;42.646;23.096;2023-04-09T03:06:18;92245.69;;;8.40;59.78
61963;BME280;47927;42.646;23.096;2023-04-09T03:08:44;92240.34;;;8.33;59.37
61963;BME280;47927;42.646;23.096;2023-04-09T03:11:10;92212.00;;;8.05;59.36
61963;BME280;47927;42.646;23.096;2023-04-09T03:13:36;92217.25;;;8.09;59.14
61963;BME280;47927;42.646;23.096;2023-04-09T03:16:01;92243.22;;;8.28;58.96
61963;BME280;47927;42.646;23.096;2023-04-09T03:18:42;92238.84;;;8.32;58.73
61963;BME280;47927;42.646;23.096;2023-04-09T03:21:08;92247.50;;;8.20;58.58
61963;BME280;47927;42.646;23.096;2023-04-09T03:23:36;92239.75;;;8.01;58.39
61963;BME280;47927;42.646;23.096;2023-04-09T03:26:04;92205.56;;;7.60;58.40
61963;BME280;47927;42.646;23.096;2023-04-09T03:28:36;92181.97;;;7.30;58.76
61963;BME280;47927;42.646;23.096;2023-04-09T03:31:02;92242.59;;;7.76;58.95
61963;BME280;47927;42.646;23.096;2023-04-09T03:33:29;92238.34;;;7.68;58.52
61963;BME280;47927;42.646;23.096;2023-04-09T03:35:57;92237.94;;;7.50;58.82
61963;BME280;47927;42.646;23.096;2023-04-09T03:38:33;92246.41;;;7.47;58.37
61963;BME280;47927;42.646;23.096;2023-04-09T03:41:04;92248.09;;;7.24;58.57
61963;BME280;47927;42.646;23.096;2023-04-09T03:43:31;92201.75;;;6.87;59.26
61963;BME280;47927;42.646;23.096;2023-04-09T03:45:57;92259.53;;;7.07;58.93
61963;BME280;47927;42.646;23.096;2023-04-09T03:48:25;92254.78;;;7.09;58.95
61963;BME280;47927;42.646;23.096;2023-04-09T03:50:50;92251.59;;;6.84;59.95
61963;BME280;47927;42.646;23.096;2023-04-09T03:53:24;92157.53;;;6.32;60.19
61963;BME280;47927;42.646;23.096;2023-04-09T03:55:51;92195.38;;;6.69;59.51
61963;BME280;47927;42.646;23.096;2023-04-09T03:58:22;92251.22;;;5.98;63.86
61963;BME280;47927;42.646;23.096;2023-04-09T04:00:47;92228.31;;;5.71;63.67
61963;BME280;47927;42.646;23.096;2023-04-09T04:03:31;92250.38;;;6.50;61.96
61963;BME280;47927;42.646;23.096;2023-04-09T04:06:32;92253.13;;;6.57;61.20
61963;BME280;47927;42.646;23.096;2023-04-09T04:09:19;92257.94;;;6.71;60.57
61963;BME280;47927;42.646;23.096;2023-04-09T04:11:52;92263.13;;;6.71;60.25
61963;BME280;47927;42.646;23.096;2023-04-09T04:14:21;92183.28;;;6.13;60.48
61963;BME280;47927;42.646;23.096;2023-04-09T04:16:53;92265.47;;;6.76;59.77
61963;BME280;47927;42.646;23.096;2023-04-09T04:19:23;92265.38;;;6.72;59.66
61963;BME280;47927;42.646;23.096;2023-04-09T04:21:52;92254.94;;;6.84;59.50
61963;BME280;47927;42.646;23.096;2023-04-09T04:24:28;92244.75;;;6.76;59.59
61963;BME280;47927;42.646;23.096;2023-04-09T04:26:55;92199.72;;;6.49;59.35
61963;BME280;47927;42.646;23.096;2023-04-09T04:29:22;92265.06;;;7.05;59.31
61963;BME280;47927;42.646;23.096;2023-04-09T04:31:59;92250.94;;;7.03;58.98
61963;BME280;47927;42.646;23.096;2023-04-09T04:34:29;92270.94;;;7.02;59.77
61963;BME280;47927;42.646;23.096;2023-04-09T04:37:02;92264.63;;;7.19;59.54
61963;BME280;47927;42.646;23.096;2023-04-09T04:39:35;92270.16;;;7.34;59.35
61963;BME280;47927;42.646;23.096;2023-04-09T04:42:10;92264.16;;;7.29;59.17
61963;BME280;47927;42.646;23.096;2023-04-09T04:44:38;92273.50;;;7.50;59.56
61963;BME280;47927;42.646;23.096;2023-04-09T04:47:11;92269.03;;;7.66;60.57
61963;BME280;47927;42.646;23.096;2023-04-09T04:49:37;92263.34;;;7.76;60.41
61963;BME280;47927;42.646;23.096;2023-04-09T04:52:05;92259.72;;;7.81;59.75
61963;BME280;47927;42.646;23.096;2023-04-09T04:54:32;92249.53;;;7.72;59.62
61963;BME280;47927;42.646;23.096;2023-04-09T04:56:58;92272.16;;;8.11;59.71
61963;BME280;47927;42.646;23.096;2023-04-09T04:59:37;92263.94;;;8.25;59.32
61963;BME280;47927;42.646;23.096;2023-04-09T05:02:06;92260.44;;;8.36;59.61
61963;BME280;47927;42.646;23.096;2023-04-09T05:04:39;92186.94;;;7.93;59.39
61963;BME280;47927;42.646;23.096;2023-04-09T05:07:09;92259.91;;;8.47;59.90
61963;BME280;47927;42.646;23.096;2023-04-09T05:09:45;92266.78;;;8.78;59.63
61963;BME280;47927;42.646;23.096;2023-04-09T05:12:10;92261.94;;;8.99;59.51
61963;BME280;47927;42.646;23.096;2023-04-09T05:14:36;92262.75;;;9.26;58.98
61963;BME280;47927;42.646;23.096;2023-04-09T05:17:02;92262.13;;;9.59;58.25
61963;BME280;47927;42.646;23.096;2023-04-09T05:19:38;92215.59;;;9.54;57.64
61963;BME280;47927;42.646;23.096;2023-04-09T05:22:04;92269.69;;;9.95;57.59
61963;BME280;47927;42.646;23.096;2023-04-09T05:24:30;92270.22;;;9.81;57.77
61963;BME280;47927;42.646;23.096;2023-04-09T05:26:55;92270.16;;;10.04;57.73
61963;BME280;47927;42.646;23.096;2023-04-09T05:29:22;92277.41;;;10.18;57.44
61963;BME280;47927;42.646;23.096;2023-04-09T05:31:47;92277.78;;;9.90;57.77
61963;BME280;47927;42.646;23.096;2023-04-09T05:34:34;92278.69;;;10.01;57.44
61963;BME280;47927;42.646;23.096;2023-04-09T05:37:00;92257.16;;;10.04;56.61
61963;BME280;47927;42.646;23.096;2023-04-09T05:39:25;92275.50;;;10.41;57.16
61963;BME280;47927;42.646;23.096;2023-04-09T05:41:51;92223.13;;;10.20;56.80
61963;BME280;47927;42.646;23.096;2023-04-09T05:44:29;92276.31;;;10.49;57.06
61963;BME280;47927;42.646;23.096;2023-04-09T05:47:02;92271.66;;;10.65;57.23
61963;BME280;47927;42.646;23.096;2023-04-09T05:49:33;92269.94;;;10.80;55.77
61963;BME280;47927;42.646;23.096;2023-04-09T05:52:01;92278.97;;;10.90;55.56
61963;BME280;47927;42.646;23.096;2023-04-09T05:54:30;92267.91;;;10.63;55.45
61963;BME280;47927;42.646;23.096;2023-04-09T05:56:56;92228.28;;;10.46;55.37
61963;BME280;47927;42.646;23.096;2023-04-09T05:59:21;92282.88;;;10.73;56.77
61963;BME280;47927;42.646;23.096;2023-04-09T06:01:50;92264.94;;;11.02;57.56
61963;BME280;47927;42.646;23.096;2023-04-09T06:04:15;92282.06;;;11.44;56.67
61963;BME280;47927;42.646;23.096;2023-04-09T06:06:41;92285.06;;;11.46;56.16
61963;BME280;47927;42.646;23.096;2023-04-09T06:09:06;92287.22;;;10.95;55.26
61963;BME280;47927;42.646;23.096;2023-04-09T06:11:35;92288.72;;;10.97;56.56
61963;BME280;47927;42.646;23.096;2023-04-09T06:14:00;92245.19;;;10.63;55.60
61963;BME280;47927;42.646;23.096;2023-04-09T06:16:26;92291.72;;;10.99;55.83
61963;BME280;47927;42.646;23.096;2023-04-09T06:18:52;92295.63;;;11.15;55.56
61963;BME280;47927;42.646;23.096;2023-04-09T06:21:19;92291.88;;;11.13;55.67
61963;BME280;47927;42.646;23.096;2023-04-09T06:23:44;92302.78;;;10.88;55.14
61963;BME280;47927;42.646;23.096;2023-04-09T06:26:10;92304.09;;;11.09;55.88
61963;BME280;47927;42.646;23.096;2023-04-09T06:28:36;92288.63;;;10.86;55.50
61963;BME280;47927;42.646;23.096;2023-04-09T06:31:01;92293.72;;;10.41;56.39
61963;BME280;47927;42.646;23.096;2023-04-09T06:33:27;92306.78;;;10.79;56.35
61963;BME280;47927;42.646;23.096;2023-04-09T06:35:52;92313.06;;;10.44;55.81
61963;BME280;47927;42.646;23.096;2023-04-09T06:38:18;92306.00;;;10.75;56.56
61963;BME280;47927;42.646;23.096;2023-04-09T06:40:43;92278.97;;;10.90;54.86
61963;BME280;47927;42.646;23.096;2023-04-09T06:43:09;92299.09;;;10.93;55.71
61963;BME280;47927;42.646;23.096;2023-04-09T06:45:40;92189.50;;;10.08;55.52
61963;BME280;47927;42.646;23.096;2023-04-09T06:48:06;92302.34;;;11.20;54.77
61963;BME280;47927;42.646;23.096;2023-04-09T06:50:38;92245.84;;;10.53;54.02
61963;BME280;47927;42.646;23.096;2023-04-09T06:53:05;92138.91;;;8.88;56.84
61963;BME280;47927;42.646;23.096;2023-04-09T06:55:31;92293.38;;;9.90;58.53
61963;BME280;47927;42.646;23.096;2023-04-09T06:57:58;92250.03;;;10.27;57.84
61963;BME280;47927;42.646;23.096;2023-04-09T07:00:28;92304.44;;;11.04;55.22
61963;BME280;47927;42.646;23.096;2023-04-09T07:03:05;92296.13;;;10.57;55.70
61963;BME280;47927;42.646;23.096;2023-04-09T07:05:34;92282.22;;;10.46;55.89
61963;BME280;47927;42.646;23.096;2023-04-09T07:08:00;92289.13;;;10.31;55.76
61963;BME280;47927;42.646;23.096;2023-04-09T07:10:26;92308.56;;;10.71;54.80
61963;BME280;47927;42.646;23.096;2023-04-09T07:12:51;92314.31;;;10.87;55.39
61963;BME280;47927;42.646;23.096;2023-04-09T07:15:17;92235.56;;;10.30;54.14
61963;BME280;47927;42.646;23.096;2023-04-09T07:17:42;92307.84;;;10.74;54.95
61963;BME280;47927;42.646;23.096;2023-04-09T07:20:08;92299.47;;;11.80;52.69
61963;BME280;47927;42.646;23.096;2023-04-09T07:22:34;92314.44;;;12.49;50.61
61963;BME280;47927;42.646;23.096;2023-04-09T07:25:00;92233.06;;;12.51;49.36
61963;BME280;47927;42.646;23.096;2023-04-09T07:27:27;92265.28;;;13.02;50.33
61963;BME280;47927;42.646;23.096;2023-04-09T07:29:59;92287.06;;;13.45;49.54
61963;BME280;47927;42.646;23.096;2023-04-09T07:32:25;92312.44;;;13.41;48.55
61963;BME280;47927;42.646;23.096;2023-04-09T07:34:55;92318.06;;;13.43;47.95
61963;BME280;47927;42.646;23.096;2023-04-09T07:37:21;92296.00;;;13.40;47.66
61963;BME280;47927;42.646;23.096;2023-04-09T07:39:48;92307.22;;;13.55;47.86
61963;BME280;47927;42.646;23.096;2023-04-09T07:42:14;92314.69;;;13.32;47.66
61963;BME280;47927;42.646;23.096;2023-04-09T07:44:39;92268.25;;;11.91;49.99
61963;BME280;47927;42.646;23.096;2023-04-09T07:47:06;92310.44;;;12.00;52.06
61963;BME280;47927;42.646;23.096;2023-04-09T07:49:32;92304.13;;;12.05;51.48
61963;BME280;47927;42.646;23.096;2023-04-09T07:52:00;92313.59;;;12.31;49.48
61963;BME280;47927;42.646;23.096;2023-04-09T07:54:26;92323.50;;;12.84;48.61
61963;BME280;47927;42.646;23.096;2023-04-09T07:56:52;92288.31;;;12.53;48.99
61963;BME280;47927;42.646;23.096;2023-04-09T07:59:18;92321.88;;;12.44;47.80
61963;BME280;47927;42.646;23.096;2023-04-09T08:01:44;92317.63;;;13.09;46.85
61963;BME280;47927;42.646;23.096;2023-04-09T08:04:10;92315.81;;;13.31;45.89
61963;BME280;47927;42.646;23.096;2023-04-09T08:06:37;92323.66;;;14.09;45.50
61963;BME280;47927;42.646;23.096;2023-04-09T08:09:03;92318.81;;;13.83;45.73
61963;BME280;47927;42.646;23.096;2023-04-09T08:11:28;92321.38;;;13.18;47.71
61963;BME280;47927;42.646;23.096;2023-04-09T08:13:54;92294.50;;;13.25;48.20
61963;BME280;47927;42.646;23.096;2023-04-09T08:16:22;92298.25;;;13.56;45.31
61963;BME280;47927;42.646;23.096;2023-04-09T08:18:52;92253.66;;;12.70;47.25
61963;BME280;47927;42.646;23.096;2023-04-09T08:21:18;92285.03;;;12.74;48.93
61963;BME280;47927;42.646;23.096;2023-04-09T08:23:44;92314.69;;;14.03;45.40
61963;BME280;47927;42.646;23.096;2023-04-09T08:26:09;92317.34;;;13.82;44.88
61963;BME280;47927;42.646;23.096;2023-04-09T08:28:35;92315.84;;;13.45;45.53
61963;BME280;47927;42.646;23.096;2023-04-09T08:31:00;92313.22;;;13.99;45.03
61963;BME280;47927;42.646;23.096;2023-04-09T08:33:26;92320.69;;;13.43;44.65
61963;BME280;47927;42.646;23.096;2023-04-09T08:35:52;92314.66;;;13.25;44.84
61963;BME280;47927;42.646;23.096;2023-04-09T08:38:18;92249.47;;;12.55;42.49
61963;BME280;47927;42.646;23.096;2023-04-09T08:40:43;92297.88;;;13.72;42.57
61963;BME280;47927;42.646;23.096;2023-04-09T08:43:13;92297.13;;;13.93;43.11
61963;BME280;47927;42.646;23.096;2023-04-09T08:45:40;92280.31;;;13.69;42.13
61963;BME280;47927;42.646;23.096;2023-04-09T08:48:08;92304.59;;;13.37;42.11
61963;BME280;47927;42.646;23.096;2023-04-09T08:50:34;92260.84;;;13.84;41.64
61963;BME280;47927;42.646;23.096;2023-04-09T08:53:04;92307.78;;;14.74;39.78
61963;BME280;47927;42.646;23.096;2023-04-09T08:55:31;92291.50;;;13.98;42.41
61963;BME280;47927;42.646;23.096;2023-04-09T08:57:59;92261.41;;;12.45;46.50
61963;BME280;47927;42.646;23.096;2023-04-09T09:00:25;92237.97;;;12.74;46.19
61963;BME280;47927;42.646;23.096;2023-04-09T09:03:20;92297.09;;;13.21;45.03
61963;BME280;47927;42.646;23.096;2023-04-09T09:05:46;92292.22;;;13.09;44.50
61963;BME280;47927;42.646;23.096;2023-04-09T09:08:22;92255.09;;;12.61;45.07
61963;BME280;47927;42.646;23.096;2023-04-09T09:10:47;92297.50;;;13.38;43.49
61963;BME280;47927;42.646;23.096;2023-04-09T09:15:42;92294.72;;;17.26;38.18
61963;BME280;47927;42.646;23.096;2023-04-09T09:18:08;92287.44;;;18.31;34.02
61963;BME280;47927;42.646;23.096;2023-04-09T09:20:34;92290.44;;;18.10;34.39
61963;BME280;47927;42.646;23.096;2023-04-09T09:22:59;92242.38;;;17.79;35.33
61963;BME280;47927;42.646;23.096;2023-04-09T09:25:25;92275.91;;;17.51;35.66
61963;BME280;47927;42.646;23.096;2023-04-09T09:27:52;92262.53;;;16.88;35.47
61963;BME280;47927;42.646;23.096;2023-04-09T09:30:37;92290.16;;;16.34;36.09
61963;BME280;47927;42.646;23.096;2023-04-09T09:33:10;92290.09;;;15.52;37.53
61963;BME280;47927;42.646;23.096;2023-04-09T09:35:49;92282.19;;;15.59;38.33
61963;BME280;47927;42.646;23.096;2023-04-09T09:38:15;92289.38;;;14.88;39.14
61963;BME280;47927;42.646;23.096;2023-04-09T09:40:42;92285.75;;;14.64;39.69
61963;BME280;47927;42.646;23.096;2023-04-09T09:43:08;92282.53;;;13.85;41.35
61963;BME280;47927;42.646;23.096;2023-04-09T09:45:35;92288.53;;;13.93;41.56
61963;BME280;47927;42.646;23.096;2023-04-09T09:48:01;92284.78;;;13.86;41.73
61963;BME280;47927;42.646;23.096;2023-04-09T09:50:30;92176.38;;;13.52;41.81
61963;BME280;47927;42.646;23.096;2023-04-09T09:53:03;92238.69;;;14.18;40.57
61963;BME280;47927;42.646;23.096;2023-04-09T09:55:33;92281.66;;;14.52;42.11
61963;BME280;47927;42.646;23.096;2023-04-09T09:58:11;92249.28;;;14.84;41.16
61963;BME280;47927;42.646;23.096;2023-04-09T10:00:41;92275.59;;;15.36;40.12
61963;BME280;47927;42.646;23.096;2023-04-09T10:03:13;92238.56;;;15.23;38.24
61963;BME280;47927;42.646;23.096;2023-04-09T10:05:40;92271.16;;;15.78;37.98
61963;BME280;47927;42.646;23.096;2023-04-09T10:08:06;92255.06;;;15.72;37.87
61963;BME280;47927;42.646;23.096;2023-04-09T10:10:35;92258.50;;;15.66;38.65
61963;BME280;47927;42.646;23.096;2023-04-09T10:13:04;92237.56;;;15.55;37.80
61963;BME280;47927;42.646;23.096;2023-04-09T10:15:31;92236.59;;;15.38;37.94
61963;BME280;47927;42.646;23.096;2023-04-09T10:17:58;92245.03;;;15.12;39.05
61963;BME280;47927;42.646;23.096;2023-04-09T10:20:32;92278.38;;;15.08;40.08
61963;BME280;47927;42.646;23.096;2023-04-09T10:23:05;92284.56;;;14.76;41.02
61963;BME280;47927;42.646;23.096;2023-04-09T10:25:34;92240.88;;;14.37;40.54
61963;BME280;47927;42.646;23.096;2023-04-09T10:28:00;92231.28;;;13.98;41.45
61963;BME280;47927;42.646;23.096;2023-04-09T10:30:35;92282.09;;;14.26;41.01
61963;BME280;47927;42.646;23.096;2023-04-09T10:33:13;92283.47;;;14.70;40.96
61963;BME280;47927;42.646;23.096;2023-04-09T10:35:39;92286.16;;;14.41;42.39
61963;BME280;47927;42.646;23.096;2023-04-09T10:38:07;92288.47;;;14.25;43.37
61963;BME280;47927;42.646;23.096;2023-04-09T10:40:33;92276.53;;;14.02;43.26
61963;BME280;47927;42.646;23.096;2023-04-09T10:42:59;92222.72;;;13.58;44.23
61963;BME280;47927;42.646;23.096;2023-04-09T10:45:38;92289.38;;;12.41;46.22
61963;BME280;47927;42.646;23.096;2023-04-09T10:48:05;92287.66;;;12.77;46.20
61963;BME280;47927;42.646;23.096;2023-04-09T10:50:35;92294.75;;;12.73;48.29
61963;BME280;47927;42.646;23.096;2023-04-09T10:53:03;92272.00;;;12.88;49.12
61963;BME280;47927;42.646;23.096;2023-04-09T10:55:39;92207.72;;;12.91;52.73
61963;BME280;47927;42.646;23.096;2023-04-09T10:58:09;92290.78;;;13.73;53.94
61963;BME280;47927;42.646;23.096;2023-04-09T11:00:42;92268.34;;;13.75;51.72
61963;BME280;47927;42.646;23.096;2023-04-09T11:05:51;92266.78;;;14.06;50.37
61963;BME280;47927;42.646;23.096;2023-04-09T11:08:18;92282.47;;;14.24;51.92
61963;BME280;47927;42.646;23.096;2023-04-09T11:10:46;92281.72;;;14.24;51.81
61963;BME280;47927;42.646;23.096;2023-04-09T11:13:16;92291.50;;;14.05;51.44
61963;BME280;47927;42.646;23.096;2023-04-09T11:15:43;92291.47;;;14.16;54.10
61963;BME280;47927;42.646;23.096;2023-04-09T11:18:23;92265.69;;;13.86;53.86
61963;BME280;47927;42.646;23.096;2023-04-09T11:20:49;92281.03;;;13.87;52.88
61963;BME280;47927;42.646;23.096;2023-04-09T11:23:18;92233.97;;;13.48;53.34
61963;BME280;47927;42.646;23.096;2023-04-09T11:25:47;92285.53;;;13.80;53.29
61963;BME280;47927;42.646;23.096;2023-04-09T11:28:14;92220.88;;;13.52;53.69
61963;BME280;47927;42.646;23.096;2023-04-09T11:30:39;92217.88;;;13.25;53.34
61963;BME280;47927;42.646;23.096;2023-04-09T11:33:06;92276.94;;;13.79;54.15
61963;BME280;47927;42.646;23.096;2023-04-09T11:35:35;92260.88;;;13.52;53.82
61963;BME280;47927;42.646;23.096;2023-04-09T11:38:05;92211.16;;;13.38;53.09
61963;BME280;47927;42.646;23.096;2023-04-09T11:40:31;92272.09;;;13.78;53.49
61963;BME280;47927;42.646;23.096;2023-04-09T11:42:57;92203.25;;;13.23;52.71
61963;BME280;47927;42.646;23.096;2023-04-09T11:45:27;92280.66;;;14.07;52.28
61963;BME280;47927;42.646;23.096;2023-04-09T11:47:53;92275.72;;;14.27;53.04
61963;BME280;47927;42.646;23.096;2023-04-09T11:50:20;92273.47;;;14.29;53.04
61963;BME280;47927;42.646;23.096;2023-04-09T11:52:46;92272.69;;;14.35;53.64
61963;BME280;47927;42.646;23.096;2023-04-09T11:55:22;92255.50;;;14.24;54.13
61963;BME280;47927;42.646;23.096;2023-04-09T11:57:50;92237.50;;;14.36;54.18
61963;BME280;47927;42.646;23.096;2023-04-09T12:00:16;92268.41;;;14.81;52.13
61963;BME280;47927;42.646;23.096;2023-04-09T12:02:47;92182.41;;;14.47;52.20
61963;BME280;47927;42.646;23.096;2023-04-09T12:05:24;92260.63;;;15.33;51.03
61963;BME280;47927;42.646;23.096;2023-04-09T12:07:56;92256.56;;;15.21;51.35
61963;BME280;47927;42.646;23.096;2023-04-09T12:10:26;92262.25;;;15.13;50.59
61963;BME280;47927;42.646;23.096;2023-04-09T12:12:51;92264.78;;;15.27;51.63
61963;BME280;47927;42.646;23.096;2023-04-09T12:17:53;92260.78;;;15.08;51.59
61963;BME280;47927;42.646;23.096;2023-04-09T12:20:45;92265.69;;;14.99;50.98
61963;BME280;47927;42.646;23.096;2023-04-09T12:23:15;92262.06;;;14.75;50.93
61963;BME280;47927;42.646;23.096;2023-04-09T12:25:43;92268.41;;;14.81;50.23
61963;BME280;47927;42.646;23.096;2023-04-09T12:28:14;92243.38;;;14.66;50.57
61963;BME280;47927;42.646;23.096;2023-04-09T12:30:40;92172.88;;;14.01;49.46
61963;BME280;47927;42.646;23.096;2023-04-09T12:33:07;92199.84;;;13.98;50.95
61963;BME280;47927;42.646;23.096;2023-04-09T12:35:32;92269.72;;;14.26;49.98
61963;BME280;47927;42.646;23.096;2023-04-09T12:37:58;92263.44;;;13.88;50.70
61963;BME280;47927;42.646;23.096;2023-04-09T12:40:25;92222.38;;;13.60;52.48
61963;BME280;47927;42.646;23.096;2023-04-09T12:42:51;92227.19;;;13.76;50.12
61963;BME280;47927;42.646;23.096;2023-04-09T12:45:18;92267.56;;;13.93;51.36
61963;BME280;47927;42.646;23.096;2023-04-09T12:47:44;92269.44;;;13.88;51.86
61963;BME280;47927;42.646;23.096;2023-04-09T12:50:11;92263.84;;;13.90;52.50
61963;BME280;47927;42.646;23.096;2023-04-09T12:52:37;92242.88;;;13.79;52.11
61963;BME280;47927;42.646;23.096;2023-04-09T12:55:03;92263.81;;;13.94;52.18
61963;BME280;47927;42.646;23.096;2023-04-09T12:57:29;92186.13;;;13.33;52.43
61963;BME280;47927;42.646;23.096;2023-04-09T12:59:55;92260.84;;;13.74;53.45
61963;BME280;47927;42.646;23.096;2023-04-09T13:02:21;92210.03;;;13.32;53.80
61963;BME280;47927;42.646;23.096;2023-04-09T13:04:47;92250.38;;;13.81;53.75
61963;BME280;47927;42.646;23.096;2023-04-09T13:07:14;92244.00;;;13.71;54.32
61963;BME280;47927;42.646;23.096;2023-04-09T13:09:42;92234.66;;;13.74;54.37
61963;BME280;47927;42.646;23.096;2023-04-09T13:12:07;92246.66;;;13.75;53.82
61963;BME280;47927;42.646;23.096;2023-04-09T13:14:33;92133.03;;;13.00;55.01
61963;BME280;47927;42.646;23.096;2023-04-09T13:16:58;92243.63;;;13.90;53.57
61963;BME280;47927;42.646;23.096;2023-04-09T13:19:24;92193.19;;;13.54;54.60
61963;BME280;47927;42.646;23.096;2023-04-09T13:21:50;92241.72;;;13.95;55.51
61963;BME280;47927;42.646;23.096;2023-04-09T13:24:16;92231.25;;;14.05;54.61